Time;durP1;ratioP1;P1;durP2;ratioP2;P2;SDS_P1;SDS_P2;PMS_P1;PMS_P2;Temp;Humidity;BMP_temperature;BMP_pressure;BME280_temperature;BME280_humidity;BME280_pressure;Samples;Min_cycle;Max_cycle;Signal;HPM_P1;HPM_P2
2022/08/03 00:01:06;;;;;;;2.85;1.95;;;24.90;1.00;;;;;;5072213;28;20234;-72
2022/08/03 00:03:33;;;;;;;3.13;1.50;;;24.90;1.00;;;;;;5072009;28;20751;-73
2022/08/03 00:06:00;;;;;;;3.25;1.85;;;24.90;1.00;;;;;;5071963;28;20202;-73
2022/08/03 00:08:27;;;;;;;1.45;1.35;;;24.90;1.00;;;;;;5072314;28;20206;-74
2022/08/03 00:10:54;;;;;;;2.53;1.27;;;24.80;1.00;;;;;;5071858;28;20218;-73
2022/08/03 00:13:22;;;;;;;4.15;1.67;;;24.70;1.00;;;;;;5071808;28;20681;-73
2022/08/03 00:15:49;;;;;;;1.90;1.50;;;24.60;1.00;;;;;;5071435;28;20210;-74
2022/08/03 00:18:16;;;;;;;4.15;2.00;;;24.60;1.00;;;;;;5071865;28;20206;-73
2022/08/03 00:20:43;;;;;;;1.63;1.40;;;24.60;1.00;;;;;;5070446;28;20233;-72
2022/08/03 00:23:10;;;;;;;2.20;1.25;;;24.50;1.00;;;;;;5071727;28;20731;-73
2022/08/03 00:25:38;;;;;;;2.63;1.77;;;24.50;1.00;;;;;;5071310;28;20553;-73
2022/08/03 00:28:06;;;;;;;1.88;1.55;;;24.40;1.00;;;;;;5071585;28;20260;-72
2022/08/03 00:30:34;;;;;;;3.72;1.65;;;24.40;1.00;;;;;;5071277;28;20210;-75
2022/08/03 00:33:02;;;;;;;2.00;1.35;;;24.20;1.00;;;;;;5071588;28;20202;-72
2022/08/03 00:35:30;;;;;;;1.58;1.42;;;24.10;1.00;;;;;;5067813;28;20198;-73
2022/08/03 00:37:57;;;;;;;1.75;1.65;;;24.10;1.00;;;;;;5064111;28;20293;-72
2022/08/03 00:40:24;;;;;;;1.88;1.30;;;24.10;1.00;;;;;;5071425;28;20206;-72
2022/08/03 00:42:53;;;;;;;4.13;1.67;;;24.30;1.00;;;;;;5071334;28;20206;-73
2022/08/03 00:45:22;;;;;;;1.95;1.40;;;24.40;1.00;;;;;;5071207;28;20681;-73
2022/08/03 00:47:50;;;;;;;2.30;1.50;;;24.30;1.00;;;;;;5070797;28;20679;-73
2022/08/03 00:50:21;;;;;;;3.15;1.77;;;24.10;1.00;;;;;;5070768;28;20214;-73
2022/08/03 00:52:49;;;;;;;2.03;1.40;;;24.20;1.00;;;;;;5070738;28;20210;-73
2022/08/03 00:55:16;;;;;;;4.32;1.45;;;24.10;1.00;;;;;;5071119;28;20560;-72
2022/08/03 00:57:44;;;;;;;2.30;1.30;;;24.20;1.00;;;;;;5070876;28;20202;-72
2022/08/03 01:00:13;;;;;;;1.73;1.45;;;24.20;1.00;;;;;;5071025;28;20334;-74
2022/08/03 01:02:40;;;;;;;1.30;1.20;;;24.10;1.00;;;;;;5070381;28;20279;-74
2022/08/03 01:05:09;;;;;;;1.45;1.35;;;24.10;1.00;;;;;;5071053;28;20214;-72
2022/08/03 01:07:46;;;;;;;1.38;1.27;;;24.10;1.00;;;;;;5070556;28;20202;-73
2022/08/03 01:10:24;;;;;;;4.55;1.73;;;23.90;1.00;;;;;;5070813;28;20273;-73
2022/08/03 01:12:59;;;;;;;1.52;1.42;;;23.90;1.00;;;;;;5070092;28;20641;-72
2022/08/03 01:15:33;;;;;;;1.60;1.50;;;24.00;1.00;;;;;;5071090;28;20206;-76
2022/08/03 01:18:06;;;;;;;4.82;2.08;;;24.00;1.00;;;;;;5070582;28;20209;-72
2022/08/03 01:20:39;;;;;;;2.63;1.30;;;23.90;1.00;;;;;;5070526;28;20203;-75
2022/08/03 01:23:34;;;;;;;1.90;1.70;;;24.00;1.00;;;;;;5070578;28;20206;-73
2022/08/03 01:26:19;;;;;;;2.42;1.38;;;23.80;1.00;;;;;;5070520;28;20250;-71
2022/08/03 01:28:58;;;;;;;1.80;1.20;;;23.70;1.00;;;;;;5070266;28;20206;-71
2022/08/03 01:31:32;;;;;;;2.10;1.90;;;23.50;1.00;;;;;;5070187;28;20279;-71
2022/08/03 01:34:02;;;;;;;8.55;2.17;;;23.50;1.00;;;;;;5070457;28;20210;-70
2022/08/03 01:36:33;;;;;;;1.75;1.40;;;23.40;1.00;;;;;;5070617;28;20267;-71
2022/08/03 01:39:03;;;;;;;1.77;1.50;;;23.30;1.00;;;;;;5070412;28;20669;-72
2022/08/03 01:41:34;;;;;;;2.25;1.05;;;23.10;1.00;;;;;;5070813;28;20268;-72
2022/08/03 01:44:03;;;;;;;2.28;1.67;;;23.10;1.00;;;;;;5070618;28;20252;-72
2022/08/03 01:46:32;;;;;;;2.92;1.65;;;22.90;1.00;;;;;;5070523;28;20206;-72
2022/08/03 01:49:01;;;;;;;4.47;1.30;;;22.90;1.00;;;;;;5070122;28;20252;-72
2022/08/03 01:51:30;;;;;;;3.67;2.08;;;22.80;1.60;;;;;;5070984;28;20622;-70
2022/08/03 01:54:00;;;;;;;2.58;1.73;;;22.70;1.80;;;;;;5071009;28;20202;-70
2022/08/03 01:56:28;;;;;;;1.73;1.63;;;22.60;1.00;;;;;;5070650;28;20235;-71
2022/08/03 01:58:58;;;;;;;2.30;1.35;;;22.50;1.40;;;;;;5069955;28;20556;-72
2022/08/03 02:01:27;;;;;;;1.65;1.35;;;22.40;1.90;;;;;;5070711;28;20237;-72
2022/08/03 02:03:59;;;;;;;3.30;1.30;;;22.30;2.70;;;;;;5069988;28;20548;-72
2022/08/03 02:06:27;;;;;;;2.78;1.67;;;22.20;4.10;;;;;;5070570;28;20259;-73
2022/08/03 02:08:56;;;;;;;2.13;1.80;;;22.20;3.60;;;;;;5069971;28;20206;-73
2022/08/03 02:11:23;;;;;;;2.60;1.65;;;22.30;4.10;;;;;;5070211;28;20206;-74
2022/08/03 02:13:51;;;;;;;1.40;1.30;;;22.30;4.60;;;;;;5070002;28;20214;-73
2022/08/03 02:16:19;;;;;;;1.55;1.45;;;22.30;4.70;;;;;;5069944;28;20247;-71
2022/08/03 02:18:48;;;;;;;1.60;1.50;;;22.30;5.00;;;;;;5075219;28;20287;-69
2022/08/03 02:21:16;;;;;;;1.40;1.30;;;22.30;5.70;;;;;;5073536;28;20704;-72
2022/08/03 02:23:43;;;;;;;1.67;1.23;;;22.20;5.50;;;;;;5078246;28;20202;-72
2022/08/03 02:26:17;;;;;;;1.88;1.25;;;22.30;5.20;;;;;;5082614;28;20738;-72
2022/08/03 02:28:48;;;;;;;1.30;1.20;;;22.20;4.50;;;;;;5084518;28;20213;-71
2022/08/03 02:31:20;;;;;;;2.38;1.75;;;22.10;4.70;;;;;;5090071;28;20213;-71
2022/08/03 02:33:51;;;;;;;4.45;2.35;;;21.90;4.50;;;;;;5089599;28;20676;-70
2022/08/03 02:36:22;;;;;;;2.40;1.80;;;21.70;4.80;;;;;;5054389;28;20393;-72
2022/08/03 02:38:53;;;;;;;2.55;1.35;;;21.60;17.00;;;;;;5063082;28;20214;-72
2022/08/03 02:41:25;;;;;;;2.35;1.60;;;21.40;5.90;;;;;;5069855;28;20279;-72
2022/08/03 02:43:54;;;;;;;5.97;1.90;;;21.30;6.80;;;;;;5073274;28;20218;-71
2022/08/03 02:46:26;;;;;;;2.45;1.35;;;21.40;6.30;;;;;;5073297;28;20248;-71
2022/08/03 02:48:54;;;;;;;4.35;1.40;;;21.50;6.80;;;;;;5073457;28;20205;-71
2022/08/03 02:51:25;;;;;;;1.50;1.38;;;21.50;7.20;;;;;;5073416;28;20256;-72
2022/08/03 02:53:53;;;;;;;3.25;1.80;;;21.80;7.60;;;;;;5084207;28;20209;-71
2022/08/03 02:56:22;;;;;;;1.88;1.65;;;21.80;6.10;;;;;;5093754;28;20254;-71
2022/08/03 02:58:50;;;;;;;7.88;2.65;;;21.90;6.20;;;;;;5093418;28;20263;-71
2022/08/03 03:01:20;;;;;;;3.33;2.35;;;22.00;5.50;;;;;;5093072;28;20231;-71
2022/08/03 03:03:49;;;;;;;1.25;1.15;;;22.10;6.90;;;;;;5093435;28;20205;-71
2022/08/03 03:06:17;;;;;;;2.35;1.77;;;22.10;6.20;;;;;;5093667;28;20212;-71
2022/08/03 03:08:46;;;;;;;2.45;2.25;;;22.00;5.90;;;;;;5093263;28;20274;-71
2022/08/03 03:11:15;;;;;;;1.70;1.60;;;21.80;7.20;;;;;;5093805;28;20330;-71
2022/08/03 03:13:44;;;;;;;1.73;1.63;;;22.00;6.90;;;;;;5078835;28;20614;-71
2022/08/03 03:16:14;;;;;;;2.10;1.73;;;21.90;7.20;;;;;;5093226;28;20669;-71
2022/08/03 03:18:43;;;;;;;1.77;1.67;;;21.90;6.20;;;;;;5092851;28;20201;-73
2022/08/03 03:21:10;;;;;;;1.98;1.60;;;21.80;7.10;;;;;;5093632;28;20201;-74
2022/08/03 03:23:39;;;;;;;2.22;1.50;;;21.80;6.70;;;;;;5092758;28;20664;-74
2022/08/03 03:26:08;;;;;;;2.15;1.48;;;21.80;7.00;;;;;;5083941;28;20699;-73
2022/08/03 03:28:36;;;;;;;1.92;1.73;;;21.70;6.30;;;;;;5087898;28;20258;-74
2022/08/03 03:31:05;;;;;;;3.60;2.33;;;21.80;6.90;;;;;;5093214;28;20741;-72
2022/08/03 03:33:33;;;;;;;4.05;1.70;;;21.80;7.40;;;;;;5093090;28;20300;-71
2022/08/03 03:36:01;;;;;;;2.30;2.10;;;21.90;7.50;;;;;;5093042;28;20201;-73
2022/08/03 03:38:28;;;;;;;4.88;1.35;;;21.90;7.40;;;;;;5093265;28;20284;-73
2022/08/03 03:40:55;;;;;;;1.90;1.77;;;21.90;6.80;;;;;;5092712;28;20258;-74
2022/08/03 03:43:25;;;;;;;1.55;1.10;;;21.80;7.50;;;;;;5092922;28;20229;-74
2022/08/03 03:45:52;;;;;;;2.28;1.75;;;21.90;6.80;;;;;;5092550;28;20654;-73
2022/08/03 03:48:20;;;;;;;1.67;1.30;;;21.90;7.30;;;;;;5092740;28;20690;-72
2022/08/03 03:50:49;;;;;;;2.50;2.30;;;21.90;7.20;;;;;;5092416;28;20213;-72
2022/08/03 03:53:16;;;;;;;2.47;1.50;;;21.90;7.80;;;;;;5092274;28;20210;-73
2022/08/03 03:55:44;;;;;;;3.28;1.77;;;21.80;7.60;;;;;;5091841;28;20201;-72
2022/08/03 03:58:11;;;;;;;2.67;1.80;;;21.80;8.40;;;;;;5092822;28;20206;-73
2022/08/03 04:00:39;;;;;;;5.07;1.55;;;21.60;8.30;;;;;;5092317;28;20258;-72
2022/08/03 04:03:06;;;;;;;1.60;1.50;;;21.60;8.50;;;;;;5092407;28;20236;-72
2022/08/03 04:11:11;;;;;;;1.80;1.40;;;21.70;9.40;;;;;;5092431;28;20216;-72
2022/08/03 04:13:40;;;;;;;3.88;1.80;;;21.70;8.10;;;;;;5091550;28;20266;-73
2022/08/03 04:16:12;;;;;;;2.72;1.90;;;21.60;10.60;;;;;;5092057;28;20345;-73
2022/08/03 04:18:41;;;;;;;4.22;1.65;;;21.50;8.40;;;;;;5091855;28;20255;-73
2022/08/03 04:21:11;;;;;;;1.63;1.52;;;21.50;8.70;;;;;;5092250;28;20233;-73
2022/08/03 04:23:42;;;;;;;2.10;1.52;;;21.60;8.90;;;;;;5091469;28;20233;-73
2022/08/03 04:26:13;;;;;;;5.15;2.05;;;21.60;9.20;;;;;;5082223;28;20263;-74
2022/08/03 04:28:43;;;;;;;2.28;1.38;;;21.40;8.90;;;;;;5087336;28;20627;-73
2022/08/03 04:31:13;;;;;;;2.55;1.67;;;21.50;9.20;;;;;;5092173;28;20216;-73
2022/08/03 04:33:43;;;;;;;4.68;1.90;;;21.50;20.30;;;;;;5091562;28;20205;-72
2022/08/03 04:36:15;;;;;;;3.92;1.75;;;21.50;15.10;;;;;;5091746;28;20227;-74
2022/08/03 04:39:02;;;;;;;3.33;2.15;;;21.50;17.20;;;;;;5060885;28;20198;-72
2022/08/03 04:41:31;;;;;;;4.15;2.20;;;21.40;18.10;;;;;;5071190;28;20618;-75
2022/08/03 04:44:00;;;;;;;2.75;2.25;;;21.30;14.10;;;;;;5071478;28;20226;-72
2022/08/03 04:46:32;;;;;;;1.75;1.65;;;21.40;17.20;;;;;;5071738;28;20219;-71
2022/08/03 04:49:00;;;;;;;3.88;3.47;;;21.40;17.80;;;;;;5071143;28;20206;-71
2022/08/03 04:51:28;;;;;;;5.55;3.42;;;21.50;16.80;;;;;;5071408;28;20211;-72
2022/08/03 04:53:55;;;;;;;8.20;2.20;;;21.50;17.20;;;;;;5061784;28;20206;-71
2022/08/03 04:56:22;;;;;;;3.40;2.30;;;21.40;14.70;;;;;;5073229;28;20742;-71
2022/08/03 04:58:49;;;;;;;3.85;1.60;;;21.20;14.10;;;;;;5080162;28;20275;-71
2022/08/03 05:01:19;;;;;;;4.55;1.80;;;21.00;19.20;;;;;;5082455;28;20666;-71
2022/08/03 05:03:47;;;;;;;2.67;2.05;;;20.90;14.90;;;;;;5087150;28;20738;-71
2022/08/03 05:06:14;;;;;;;2.65;1.88;;;20.80;14.60;;;;;;5085604;28;20263;-72
2022/08/03 05:08:41;;;;;;;3.45;1.83;;;20.70;14.40;;;;;;5088684;28;20209;-72
2022/08/03 05:11:08;;;;;;;3.65;1.58;;;20.50;15.30;;;;;;5079740;28;20661;-73
2022/08/03 05:13:35;;;;;;;2.55;2.33;;;20.60;16.20;;;;;;5086409;28;20221;-73
2022/08/03 05:16:02;;;;;;;3.30;2.13;;;20.70;16.00;;;;;;5083506;28;20206;-71
2022/08/03 05:18:29;;;;;;;3.85;2.13;;;20.70;17.10;;;;;;5074588;28;20227;-72
2022/08/03 05:20:57;;;;;;;4.70;2.17;;;20.80;16.60;;;;;;5055101;28;20210;-72
2022/08/03 05:23:24;;;;;;;3.78;1.85;;;20.80;16.70;;;;;;5083241;28;20292;-72
2022/08/03 05:25:51;;;;;;;6.60;2.40;;;20.90;17.20;;;;;;5074834;28;20206;-73
2022/08/03 05:28:18;;;;;;;6.15;2.20;;;21.00;17.50;;;;;;5083846;28;20268;-72
2022/08/03 05:30:45;;;;;;;4.28;2.67;;;21.10;18.10;;;;;;5080072;28;20198;-71
2022/08/03 05:33:12;;;;;;;3.83;2.88;;;21.10;17.70;;;;;;5083282;28;20661;-71
2022/08/03 05:35:39;;;;;;;2.60;1.70;;;21.10;19.00;;;;;;5090244;28;20201;-71
2022/08/03 05:38:08;;;;;;;2.15;1.80;;;21.20;17.70;;;;;;5090903;28;20251;-71
2022/08/03 05:40:35;;;;;;;1.83;1.38;;;21.20;42.40;;;;;;5090011;28;20205;-73
2022/08/03 05:43:02;;;;;;;2.33;2.10;;;21.30;17.60;;;;;;5090780;28;20269;-71
2022/08/03 05:45:29;;;;;;;3.63;1.70;;;21.50;18.10;;;;;;5090352;28;20205;-71
2022/08/03 05:47:56;;;;;;;3.28;2.15;;;21.70;18.80;;;;;;5090231;28;20578;-71
2022/08/03 05:50:23;;;;;;;2.15;1.95;;;21.70;17.70;;;;;;5090108;28;20210;-70
2022/08/03 05:52:51;;;;;;;2.90;1.73;;;21.80;17.80;;;;;;5085425;28;20648;-71
2022/08/03 05:55:19;;;;;;;3.70;1.88;;;22.00;17.70;;;;;;5076907;28;20259;-72
2022/08/03 05:57:47;;;;;;;2.70;1.77;;;21.90;17.40;;;;;;5090247;28;20202;-72
2022/08/03 06:00:14;;;;;;;2.67;1.65;;;22.10;17.90;;;;;;5090566;28;20211;-70
2022/08/03 06:02:42;;;;;;;3.90;2.22;;;22.00;18.00;;;;;;5083944;28;20297;-73
2022/08/03 06:05:10;;;;;;;2.00;1.80;;;22.10;17.40;;;;;;5086168;28;20256;-70
2022/08/03 06:07:37;;;;;;;4.07;1.95;;;22.10;17.20;;;;;;5090260;28;20288;-73
2022/08/03 06:10:05;;;;;;;4.25;1.80;;;22.20;18.40;;;;;;5070754;28;20203;-75
2022/08/03 06:12:34;;;;;;;2.53;2.10;;;22.30;17.10;;;;;;5066675;28;20255;-72
2022/08/03 06:15:02;;;;;;;2.80;2.33;;;22.40;17.80;;;;;;5082220;28;20222;-70
2022/08/03 06:17:29;;;;;;;3.53;2.63;;;22.40;17.50;;;;;;5072780;28;20673;-71
2022/08/03 06:19:56;;;;;;;2.47;2.28;;;22.40;18.20;;;;;;5069745;28;20199;-69
2022/08/03 06:22:23;;;;;;;3.63;2.20;;;22.60;17.70;;;;;;5071956;28;20210;-70
2022/08/03 06:24:50;;;;;;;4.72;2.08;;;22.70;17.70;;;;;;5073215;28;20202;-70
2022/08/03 06:27:18;;;;;;;3.75;1.92;;;22.60;17.40;;;;;;5087752;28;20672;-69
2022/08/03 06:29:46;;;;;;;2.50;1.80;;;22.70;17.30;;;;;;5092950;28;20250;-69
2022/08/03 06:32:13;;;;;;;4.85;2.47;;;22.80;18.00;;;;;;5094065;28;20205;-69
2022/08/03 06:34:40;;;;;;;2.90;1.70;;;23.10;16.50;;;;;;5093866;28;20288;-70
2022/08/03 06:37:07;;;;;;;4.65;2.78;;;23.20;17.10;;;;;;5080637;28;20241;-69
2022/08/03 06:39:34;;;;;;;1.95;1.70;;;23.30;16.80;;;;;;5089932;28;20202;-69
2022/08/03 06:42:01;;;;;;;4.82;2.15;;;23.30;17.30;;;;;;5072391;28;20202;-70
2022/08/03 06:44:28;;;;;;;4.55;2.20;;;23.40;17.20;;;;;;5067589;28;21025;-70
2022/08/03 06:46:57;;;;;;;6.55;2.03;;;23.50;18.20;;;;;;5072588;28;20203;-69
2022/08/03 06:49:24;;;;;;;4.18;2.35;;;23.70;16.10;;;;;;5070461;28;20206;-70
2022/08/03 06:51:52;;;;;;;4.35;2.10;;;23.80;15.50;;;;;;5067554;28;20256;-70
2022/08/03 06:54:23;;;;;;;11.32;2.90;;;23.80;17.10;;;;;;5072573;28;20206;-70
2022/08/03 06:56:50;;;;;;;6.18;1.80;;;23.90;16.30;;;;;;5073811;28;20218;-70
2022/08/03 06:59:17;;;;;;;2.83;2.53;;;23.90;16.20;;;;;;5077773;28;20205;-70
2022/08/03 07:01:44;;;;;;;5.85;2.22;;;24.10;16.30;;;;;;5070337;28;20203;-69
2022/08/03 07:04:12;;;;;;;7.65;2.55;;;24.30;16.20;;;;;;5078086;28;20287;-68
2022/08/03 07:06:39;;;;;;;4.28;2.78;;;24.60;15.60;;;;;;5067361;28;20248;-68
2022/08/03 07:09:06;;;;;;;4.82;2.40;;;24.70;15.90;;;;;;5077047;28;20217;-68
2022/08/03 07:11:33;;;;;;;5.18;2.42;;;24.90;15.10;;;;;;5074864;28;20206;-71
2022/08/03 07:14:00;;;;;;;3.80;2.03;;;25.10;15.00;;;;;;5076875;28;20688;-68
2022/08/03 07:16:27;;;;;;;7.30;2.67;;;25.20;16.10;;;;;;5080787;28;20267;-68
2022/08/03 07:18:54;;;;;;;6.22;3.05;;;25.20;14.80;;;;;;5079978;28;20206;-69
2022/08/03 07:21:23;;;;;;;8.50;2.95;;;25.30;14.80;;;;;;5083257;28;20205;-72
2022/08/03 07:23:49;;;;;;;3.42;1.98;;;25.50;14.10;;;;;;5077452;28;20226;-72
2022/08/03 07:26:16;;;;;;;5.90;3.10;;;25.70;15.30;;;;;;5078121;28;20206;-73
2022/08/03 07:28:43;;;;;;;5.78;3.00;;;26.00;14.80;;;;;;5087804;28;20266;-72
2022/08/03 07:31:10;;;;;;;3.45;2.42;;;26.20;13.50;;;;;;5093101;28;20680;-71
2022/08/03 07:33:37;;;;;;;5.63;2.85;;;26.40;13.00;;;;;;5092714;28;20255;-71
2022/08/03 07:36:05;;;;;;;7.13;2.67;;;26.40;14.40;;;;;;5092951;28;20250;-79
2022/08/03 07:38:35;;;;;;;3.90;2.80;;;26.60;15.20;;;;;;5092765;28;20214;-73
2022/08/03 07:41:02;;;;;;;5.45;2.15;;;27.20;19.30;;;;;;5079129;28;20379;-75
2022/08/03 07:43:30;;;;;;;3.35;2.45;;;27.20;26.50;;;;;;5093053;28;20241;-71
2022/08/03 07:45:57;;;;;;;4.53;2.13;;;27.60;27.70;;;;;;5092699;28;20206;-71
2022/08/03 07:48:24;;;;;;;3.30;2.20;;;27.30;25.20;;;;;;5093091;28;20205;-72
2022/08/03 07:50:51;;;;;;;7.00;2.80;;;27.10;26.10;;;;;;5091808;28;20734;-72
2022/08/03 07:53:18;;;;;;;2.30;2.08;;;27.20;26.70;;;;;;5092722;28;20270;-72
2022/08/03 07:55:46;;;;;;;3.63;2.05;;;27.50;28.30;;;;;;5085306;28;20731;-72
2022/08/03 07:58:16;;;;;;;3.75;2.20;;;27.70;27.40;;;;;;5063435;28;20562;-72
2022/08/03 08:00:44;;;;;;;3.50;2.08;;;27.80;27.90;;;;;;5071949;28;20202;-71
2022/08/03 08:03:12;;;;;;;3.03;2.05;;;28.10;26.50;;;;;;5072103;28;20232;-71
2022/08/03 08:05:39;;;;;;;11.40;2.88;;;28.20;26.90;;;;;;5071422;28;20285;-74
2022/08/03 08:08:07;;;;;;;6.85;2.60;;;28.40;26.50;;;;;;5072088;28;20275;-74
2022/08/03 08:10:35;;;;;;;5.25;2.35;;;28.40;26.30;;;;;;5071809;28;20256;-72
2022/08/03 08:13:04;;;;;;;4.15;2.90;;;28.40;26.40;;;;;;5071955;28;20210;-72
2022/08/03 08:15:31;;;;;;;2.80;2.00;;;28.60;26.10;;;;;;5071990;28;20210;-74
2022/08/03 08:18:01;;;;;;;3.17;2.15;;;28.80;25.70;;;;;;5071990;28;20289;-72
2022/08/03 08:20:30;;;;;;;3.38;2.90;;;28.80;25.90;;;;;;5072154;28;20293;-72
2022/08/03 08:22:58;;;;;;;3.03;2.22;;;28.70;53.20;;;;;;5071682;28;20634;-71
2022/08/03 08:25:26;;;;;;;4.97;2.50;;;28.90;26.60;;;;;;5072146;28;20199;-71
2022/08/03 08:27:53;;;;;;;2.53;2.33;;;29.10;26.50;;;;;;5081251;28;20233;-74
2022/08/03 08:30:23;;;;;;;3.30;2.67;;;29.30;27.20;;;;;;5061872;28;20636;-72
2022/08/03 08:32:50;;;;;;;2.35;2.20;;;29.30;26.20;;;;;;5071501;28;20210;-72
2022/08/03 08:35:18;;;;;;;2.70;2.35;;;29.50;26.70;;;;;;5071150;28;20206;-71
2022/08/03 08:37:46;;;;;;;4.75;2.55;;;29.80;28.00;;;;;;5071049;28;20202;-74
2022/08/03 08:40:13;;;;;;;6.70;2.45;;;30.00;26.40;;;;;;5070986;28;20733;-74
2022/08/03 08:42:41;;;;;;;3.60;2.75;;;30.20;26.50;;;;;;5070889;28;20207;-75
2022/08/03 08:45:10;;;;;;;2.70;2.30;;;30.10;26.70;;;;;;5071248;28;20273;-72
2022/08/03 08:47:41;;;;;;;6.10;3.45;;;30.50;26.60;;;;;;5069103;28;20614;-72
2022/08/03 08:50:09;;;;;;;3.50;2.40;;;30.60;26.70;;;;;;5071351;28;20202;-73
2022/08/03 08:52:40;;;;;;;2.22;2.13;;;30.70;25.40;;;;;;5070742;28;20281;-72
2022/08/03 08:55:10;;;;;;;3.17;2.55;;;30.70;26.50;;;;;;5071133;28;20585;-72
2022/08/03 08:57:39;;;;;;;4.88;3.33;;;30.90;26.70;;;;;;5070468;28;20210;-72
2022/08/03 09:00:09;;;;;;;3.50;3.05;;;30.80;27.20;;;;;;5071233;28;20206;-72
2022/08/03 09:02:37;;;;;;;3.70;2.85;;;31.10;26.90;;;;;;5070426;28;20202;-72
2022/08/03 09:05:05;;;;;;;3.38;2.67;;;31.40;27.70;;;;;;5071313;28;20383;-76
2022/08/03 09:07:32;;;;;;;9.88;3.20;;;31.50;26.00;;;;;;5070465;28;20676;-73
2022/08/03 09:09:59;;;;;;;4.03;2.60;;;31.40;27.00;;;;;;5070904;28;20685;-74
2022/08/03 09:12:26;;;;;;;3.38;3.03;;;31.50;25.90;;;;;;5071061;28;20677;-75
2022/08/03 09:14:55;;;;;;;5.18;2.97;;;31.90;26.70;;;;;;5070489;28;20213;-74
2022/08/03 09:17:22;;;;;;;2.88;2.58;;;31.90;25.90;;;;;;5070765;28;20255;-76
2022/08/03 09:20:07;;;;;;;3.47;2.85;;;32.00;26.90;;;;;;5070327;28;20206;-75
2022/08/03 09:22:34;;;;;;;2.75;2.55;;;32.30;27.10;;;;;;5070312;28;20304;-73
2022/08/03 09:25:04;;;;;;;3.20;2.35;;;32.20;26.70;;;;;;5068578;28;20598;-73
2022/08/03 09:27:42;;;;;;;4.68;2.70;;;32.00;25.90;;;;;;5077516;28;20205;-76
2022/08/03 09:30:14;;;;;;;3.13;2.92;;;32.30;27.50;;;;;;5090847;28;20208;-74
2022/08/03 09:32:43;;;;;;;3.20;2.90;;;33.00;27.90;;;;;;5090428;28;20664;-74
2022/08/03 09:35:12;;;;;;;4.22;2.95;;;33.80;26.30;;;;;;5090782;28;20211;-75
2022/08/03 09:37:40;;;;;;;4.35;3.08;;;33.90;26.90;;;;;;5090949;28;20418;-76
2022/08/03 09:40:08;;;;;;;4.03;2.60;;;33.80;28.50;;;;;;5091082;28;20273;-76
2022/08/03 09:42:37;;;;;;;2.80;2.60;;;34.20;27.40;;;;;;5090342;28;20200;-74
2022/08/03 09:45:05;;;;;;;3.35;2.40;;;34.10;25.90;;;;;;5090565;28;20269;-76
2022/08/03 09:47:35;;;;;;;2.60;2.47;;;35.10;28.40;;;;;;5089930;28;20288;-74
2022/08/03 09:50:04;;;;;;;2.80;2.60;;;35.20;27.00;;;;;;5090785;28;20243;-75
2022/08/03 09:52:33;;;;;;;2.35;2.25;;;35.60;27.80;;;;;;5089691;28;20205;-75
2022/08/03 09:55:01;;;;;;;3.65;2.50;;;35.50;26.60;;;;;;5090846;28;20200;-75
2022/08/03 09:57:30;;;;;;;2.95;2.45;;;36.00;29.30;;;;;;5090810;28;20209;-75
2022/08/03 10:00:09;;;;;;;2.90;2.70;;;35.50;31.10;;;;;;5090930;28;20288;-74
2022/08/03 10:02:36;;;;;;;2.60;2.40;;;35.50;30.50;;;;;;5090228;28;20208;-75
2022/08/03 10:05:04;;;;;;;5.32;2.60;;;35.70;30.90;;;;;;5090849;28;20236;-75
2022/08/03 10:07:43;;;;;;;4.03;2.45;;;36.90;34.20;;;;;;5090820;28;20266;-75
2022/08/03 10:10:10;;;;;;;2.40;2.20;;;39.00;37.40;;;;;;5090687;28;20295;-76
2022/08/03 10:12:38;;;;;;;3.28;2.90;;;39.60;42.20;;;;;;5090056;28;20204;-76
2022/08/03 10:15:06;;;;;;;2.47;2.03;;;40.80;43.40;;;;;;5090187;28;20295;-75
2022/08/03 10:17:33;;;;;;;2.08;1.98;;;41.10;47.00;;;;;;5090306;28;20253;-75
2022/08/03 10:20:00;;;;;;;3.10;2.17;;;39.80;24.70;;;;;;5089013;28;20208;-75
2022/08/03 10:22:29;;;;;;;3.85;2.30;;;40.50;28.30;;;;;;5081329;28;20261;-75
2022/08/03 10:25:00;;;;;;;2.90;1.83;;;42.50;27.60;;;;;;5090165;28;20221;-75
2022/08/03 10:27:31;;;;;;;2.30;2.17;;;43.30;32.40;;;;;;5062901;28;20209;-76
2022/08/03 10:30:03;;;;;;;3.05;1.77;;;41.30;27.00;;;;;;5078676;28;20255;-76
2022/08/03 10:32:31;;;;;;;2.53;2.40;;;39.60;19.00;;;;;;5069856;28;20760;-75
2022/08/03 10:35:04;;;;;;;2.58;2.38;;;39.30;18.40;;;;;;5070069;28;20209;-75
2022/08/03 10:37:34;;;;;;;2.33;1.92;;;40.90;20.20;;;;;;5069820;28;20284;-80
2022/08/03 10:40:03;;;;;;;2.55;2.22;;;40.30;19.60;;;;;;5070269;28;20206;-76
2022/08/03 10:42:31;;;;;;;4.82;2.72;;;37.30;7.60;;;;;;5069865;28;20579;-74
2022/08/03 10:45:05;;;;;;;3.63;2.63;;;35.50;4.90;;;;;;5069825;28;20671;-77
2022/08/03 10:47:33;;;;;;;3.95;2.78;;;34.80;2.20;;;;;;5069655;28;20197;-75
2022/08/03 10:50:01;;;;;;;2.55;2.00;;;34.30;1.00;;;;;;5069708;28;20209;-76
2022/08/03 10:52:28;;;;;;;3.83;1.90;;;34.30;1.30;;;;;;5069935;28;20734;-75
2022/08/03 10:57:49;;;;;;;2.20;2.00;;;34.80;1.10;;;;;;5069511;28;20247;-80
2022/08/03 11:00:17;;;;;;;2.58;2.35;;;34.90;1.00;;;;;;5069522;28;20262;-78
2022/08/03 11:03:07;;;;;;;3.85;2.42;;;35.30;1.40;;;;;;5069246;28;20273;-75
2022/08/03 11:05:37;;;;;;;2.55;2.20;;;35.30;1.30;;;;;;5064742;28;20610;-74
2022/08/03 11:08:27;;;;;;;2.03;1.83;;;35.10;1.30;;;;;;5073286;28;20259;-74
2022/08/03 11:10:56;;;;;;;4.20;2.13;;;35.20;1.00;;;;;;5066940;28;20206;-75
2022/08/03 11:13:27;;;;;;;4.07;2.83;;;35.40;1.00;;;;;;5072930;28;20286;-77
2022/08/03 11:15:55;;;;;;;2.13;2.03;;;35.10;1.00;;;;;;5073077;28;20673;-78
2022/08/03 11:18:23;;;;;;;2.30;2.15;;;34.80;1.00;;;;;;5072999;28;20333;-75
2022/08/03 11:20:52;;;;;;;2.53;1.80;;;35.20;1.00;;;;;;5072715;28;20201;-76
2022/08/03 11:23:21;;;;;;;2.25;1.90;;;35.10;1.00;;;;;;5061640;28;20271;-73
2022/08/03 11:26:13;;;;;;;2.15;2.05;;;35.20;1.00;;;;;;5072711;28;20264;-74
2022/08/03 11:28:43;;;;;;;3.15;2.17;;;35.40;1.00;;;;;;5066973;28;20213;-76
2022/08/03 11:31:56;;;;;;;2.20;2.00;;;35.80;1.00;;;;;;5073979;28;20241;-74
2022/08/03 11:34:23;;;;;;;2.75;2.40;;;35.90;1.00;;;;;;5074627;28;20209;-74
2022/08/03 11:37:18;;;;;;;2.15;1.95;;;35.80;1.00;;;;;;5068772;28;20210;-74
2022/08/03 11:39:47;;;;;;;3.17;2.30;;;35.80;1.00;;;;;;5072403;28;20205;-79
2022/08/03 11:42:44;;;;;;;2.60;2.30;;;35.90;1.00;;;;;;5072120;28;20201;-74
2022/08/03 11:45:13;;;;;;;2.42;2.22;;;36.30;1.00;;;;;;5072581;28;20229;-81
2022/08/03 11:47:42;;;;;;;3.45;2.00;;;36.20;1.00;;;;;;5072008;28;20632;-75
2022/08/03 11:50:11;;;;;;;3.25;3.05;;;35.90;1.00;;;;;;5072565;28;20247;-75
2022/08/03 11:52:40;;;;;;;6.45;2.40;;;35.60;1.00;;;;;;5071839;28;20647;-74
2022/08/03 11:55:15;;;;;;;2.55;2.35;;;35.80;1.00;;;;;;5072695;28;20205;-74
2022/08/03 11:57:45;;;;;;;2.13;1.95;;;35.60;1.00;;;;;;5071594;28;20209;-79
2022/08/03 12:00:24;;;;;;;3.00;2.72;;;35.70;1.00;;;;;;5072308;28;20597;-74
2022/08/03 12:03:00;;;;;;;3.38;2.20;;;35.90;1.00;;;;;;5071741;28;20211;-75
2022/08/03 12:05:35;;;;;;;2.78;2.33;;;36.10;1.00;;;;;;5072684;28;20290;-81
2022/08/03 12:08:02;;;;;;;3.15;2.40;;;36.20;1.00;;;;;;5070428;28;20266;-79
2022/08/03 12:10:29;;;;;;;4.22;2.60;;;36.40;1.00;;;;;;5072077;28;20201;-74
2022/08/03 12:12:57;;;;;;;2.47;2.20;;;36.20;1.00;;;;;;5069943;28;20201;-73
2022/08/03 12:15:32;;;;;;;3.13;1.52;;;36.20;1.00;;;;;;5070043;28;20205;-74
2022/08/03 12:18:00;;;;;;;2.40;2.25;;;36.20;1.00;;;;;;5071967;28;20668;-75
2022/08/03 12:20:28;;;;;;;4.22;3.22;;;36.30;1.00;;;;;;5072265;28;20213;-76
2022/08/03 12:23:02;;;;;;;3.65;2.47;;;36.30;1.00;;;;;;5071753;28;20615;-77
2022/08/03 12:25:29;;;;;;;2.70;2.50;;;36.30;1.00;;;;;;5059395;28;20222;-75
2022/08/03 12:28:15;;;;;;;2.25;2.05;;;36.40;1.00;;;;;;5081836;28;20209;-78
2022/08/03 12:30:44;;;;;;;2.65;2.45;;;36.20;1.00;;;;;;5091385;28;20706;-76
2022/08/03 12:33:22;;;;;;;3.13;2.60;;;36.50;1.00;;;;;;5092315;28;20262;-73
2022/08/03 12:35:51;;;;;;;2.45;1.85;;;36.50;1.00;;;;;;5091518;28;20209;-73
2022/08/03 12:38:22;;;;;;;2.25;1.88;;;36.70;1.00;;;;;;5091988;28;20910;-80
2022/08/03 12:40:58;;;;;;;2.00;1.90;;;36.60;1.00;;;;;;5091267;28;20258;-74
2022/08/03 12:43:25;;;;;;;2.58;2.22;;;36.70;1.00;;;;;;5092346;28;20212;-74
2022/08/03 12:46:10;;;;;;;3.30;1.98;;;36.50;1.00;;;;;;5091250;28;20240;-74
2022/08/03 12:48:37;;;;;;;3.28;1.80;;;36.40;1.00;;;;;;5091334;28;20204;-75
2022/08/03 12:51:11;;;;;;;2.90;2.30;;;36.70;1.00;;;;;;5078737;28;20205;-73
2022/08/03 12:53:38;;;;;;;2.70;2.50;;;36.50;1.00;;;;;;5074605;28;20205;-74
2022/08/03 12:56:06;;;;;;;2.78;2.63;;;37.00;1.00;;;;;;5091395;28;20258;-74
2022/08/03 12:58:34;;;;;;;3.33;2.72;;;37.10;1.00;;;;;;5091228;28;20205;-73
2022/08/03 13:01:04;;;;;;;3.65;2.10;;;36.90;1.00;;;;;;5091333;28;20208;-74
2022/08/03 13:03:40;;;;;;;2.38;2.20;;;37.10;1.00;;;;;;5091429;28;20299;-73
2022/08/03 13:06:12;;;;;;;2.95;2.20;;;37.20;1.00;;;;;;5091055;28;20661;-74
2022/08/03 13:08:39;;;;;;;4.78;2.03;;;36.70;1.00;;;;;;5090898;28;20215;-73
2022/08/03 13:11:19;;;;;;;2.47;2.28;;;36.50;1.00;;;;;;5091218;28;20679;-74
2022/08/03 13:13:46;;;;;;;4.03;2.60;;;37.00;1.00;;;;;;5090751;28;20675;-73